createdAt,value
2023-03-15T00:01:22.091Z,69.02
2023-03-15T00:04:07.986Z,68.71
2023-03-15T00:06:56.826Z,70.21
2023-03-15T00:09:42.048Z,68.66
2023-03-15T00:12:27.578Z,67.30
2023-03-15T00:15:15.666Z,67.52
2023-03-15T00:18:00.737Z,67.09
2023-03-15T00:20:46.747Z,67.65
2023-03-15T00:23:31.897Z,66.05
2023-03-15T00:26:17.906Z,67.85
2023-03-15T00:29:03.393Z,67.70
2023-03-15T00:31:48.950Z,67.54
2023-03-15T00:34:34.196Z,66.75
2023-03-15T00:37:19.601Z,67.21
2023-03-15T00:40:05.735Z,67.36
2023-03-15T00:42:52.278Z,68.53
2023-03-15T00:45:37.784Z,66.62
2023-03-15T00:48:23.404Z,67.76
2023-03-15T00:51:09.806Z,67.60
2023-03-15T00:53:56.471Z,66.61
2023-03-15T00:56:41.679Z,66.08
2023-03-15T00:59:32.533Z,64.88
2023-03-15T01:02:17.980Z,67.84
2023-03-15T01:05:06.088Z,66.63
2023-03-15T01:07:52.932Z,66.24
2023-03-15T01:10:38.417Z,67.89
2023-03-15T01:13:24.098Z,68.26
2023-03-15T01:16:12.440Z,67.79
2023-03-15T01:18:57.842Z,67.79
2023-03-15T01:21:44.473Z,67.54
2023-03-15T01:24:29.705Z,66.64
2023-03-15T01:27:14.975Z,66.05
2023-03-15T01:30:00.383Z,65.20
2023-03-15T01:32:46.002Z,66.62
2023-03-15T01:35:31.708Z,66.69
2023-03-15T01:38:17.145Z,66.00
2023-03-15T01:41:03.164Z,66.00
2023-03-15T01:43:49.162Z,65.58
2023-03-15T01:46:35.653Z,65.78
2023-03-15T01:49:35.910Z,65.72
2023-03-15T01:52:29.411Z,66.24
2023-03-15T01:55:20.593Z,66.56
2023-03-15T01:58:16.294Z,66.26
2023-03-15T02:01:03.041Z,67.70
2023-03-15T02:03:58.130Z,68.19
2023-03-15T02:06:48.637Z,68.27
2023-03-15T02:10:04.375Z,68.40
2023-03-15T02:12:52.487Z,69.21
2023-03-15T02:15:37.842Z,69.19
2023-03-15T02:18:25.203Z,68.80
2023-03-15T02:21:41.092Z,69.23
2023-03-15T02:25:08.564Z,68.48
2023-03-15T02:27:55.090Z,68.27
2023-03-15T02:30:41.050Z,67.94
2023-03-15T02:33:30.435Z,67.68
2023-03-15T02:36:21.918Z,68.05
2023-03-15T02:39:19.728Z,67.32
2023-03-15T02:42:05.855Z,68.53
2023-03-15T02:44:52.731Z,68.89
2023-03-15T02:47:39.693Z,68.58
2023-03-15T02:50:25.990Z,68.98
2023-03-15T02:53:11.145Z,67.84
2023-03-15T02:55:56.728Z,67.87
2023-03-15T02:58:43.520Z,68.57
2023-03-15T03:01:28.919Z,69.62
2023-03-15T03:04:15.093Z,70.00
2023-03-15T03:07:00.325Z,70.40
2023-03-15T03:09:52.876Z,70.05
2023-03-15T03:12:39.756Z,69.72
2023-03-15T03:15:24.910Z,69.28
2023-03-15T03:18:10.489Z,68.36
2023-03-15T03:20:57.979Z,69.02
2023-03-15T03:23:43.091Z,69.56
2023-03-15T03:26:28.569Z,69.78
2023-03-15T03:29:14.712Z,70.06
2023-03-15T03:32:00.202Z,69.41
2023-03-15T03:34:45.984Z,69.96
2023-03-15T03:37:31.076Z,70.73
2023-03-15T03:40:22.761Z,70.78
2023-03-15T03:43:08.974Z,70.63
2023-03-15T03:45:54.396Z,70.35
2023-03-15T03:48:40.074Z,69.13
2023-03-15T03:51:25.634Z,69.19
2023-03-15T03:54:11.072Z,69.61
2023-03-15T03:56:56.254Z,69.83
2023-03-15T03:59:44.314Z,69.72
2023-03-15T04:02:29.669Z,68.70
2023-03-15T04:05:21.406Z,68.83
2023-03-15T04:08:06.748Z,68.97
2023-03-15T04:10:57.904Z,68.84
2023-03-15T04:13:46.101Z,69.02
2023-03-15T04:16:31.360Z,69.26
2023-03-15T04:19:20.885Z,69.07
2023-03-15T04:22:06.221Z,68.92
2023-03-15T04:25:19.012Z,69.38
2023-03-15T04:28:12.932Z,69.20
2023-03-15T04:31:26.708Z,69.34
2023-03-15T04:34:29.343Z,69.31
2023-03-15T04:37:24.629Z,69.53
2023-03-15T04:40:21.271Z,69.67
2023-03-15T04:43:26.800Z,69.69
2023-03-15T04:46:47.579Z,70.47
2023-03-15T04:49:43.303Z,70.39
2023-03-15T04:52:49.126Z,69.70
2023-03-15T04:55:54.914Z,70.53
2023-03-15T04:58:40.453Z,70.69
2023-03-15T05:01:44.733Z,71.04
2023-03-15T05:04:50.136Z,72.56
2023-03-15T05:07:42.385Z,72.33
2023-03-15T05:10:48.556Z,72.28
2023-03-15T05:13:45.416Z,73.12
2023-03-15T05:17:00.224Z,72.99
2023-03-15T05:19:52.190Z,73.58
2023-03-15T05:22:49.835Z,73.51
2023-03-15T05:25:50.988Z,73.06
2023-03-15T05:28:59.714Z,73.26
2023-03-15T05:31:54.869Z,73.45
2023-03-15T05:34:48.746Z,72.89
2023-03-15T05:38:00.191Z,73.18
2023-03-15T05:41:24.088Z,73.38
2023-03-15T05:44:35.260Z,73.51
2023-03-15T05:47:39.299Z,72.35
2023-03-15T05:50:24.674Z,72.38
2023-03-15T05:53:30.520Z,72.79
2023-03-15T05:56:27.932Z,72.89
2023-03-15T05:59:32.295Z,72.65
2023-03-15T06:02:37.716Z,73.84
2023-03-15T06:05:39.491Z,74.18
2023-03-15T06:08:30.118Z,76.02
2023-03-15T06:11:15.335Z,76.57
2023-03-15T06:14:01.511Z,76.70
2023-03-15T06:17:03.574Z,78.00
2023-03-15T06:19:49.437Z,78.65
2023-03-15T06:22:34.848Z,78.81
2023-03-15T06:25:27.060Z,79.15
2023-03-15T06:28:12.650Z,78.93
2023-03-15T06:31:13.062Z,79.57
2023-03-15T06:34:08.634Z,79.49
2023-03-15T06:36:54.009Z,78.81
2023-03-15T06:39:40.162Z,79.21
2023-03-15T06:42:25.562Z,80.55
2023-03-15T06:45:11.060Z,80.26
2023-03-15T06:47:56.498Z,80.35
2023-03-15T06:50:47.329Z,80.51
2023-03-15T06:53:33.811Z,81.73
2023-03-15T06:56:19.507Z,81.50
2023-03-15T06:59:05.665Z,81.66
2023-03-15T07:01:51.416Z,82.04
2023-03-15T07:04:36.861Z,82.27
2023-03-15T07:07:22.004Z,82.13
2023-03-15T07:10:07.864Z,81.99
2023-03-15T07:12:53.055Z,82.69
2023-03-15T07:15:38.299Z,82.06
2023-03-15T07:18:24.153Z,82.12
2023-03-15T07:21:09.487Z,81.80
2023-03-15T07:23:55.297Z,81.06
2023-03-15T07:26:40.702Z,82.02
2023-03-15T07:29:26.103Z,82.51
2023-03-15T07:32:11.561Z,81.39
2023-03-15T07:34:56.704Z,80.55
2023-03-15T07:37:45.154Z,80.98
2023-03-15T07:40:30.673Z,80.28
2023-03-15T07:43:16.628Z,80.21
2023-03-15T07:46:02.286Z,80.32
2023-03-15T07:48:47.687Z,80.10
2023-03-15T07:51:32.845Z,80.25
2023-03-15T07:54:17.942Z,80.63
2023-03-15T07:57:03.272Z,80.58
2023-03-15T07:59:48.529Z,80.37
2023-03-15T08:02:34.191Z,80.33
2023-03-15T08:05:19.545Z,79.52
2023-03-15T08:08:05.292Z,79.50
2023-03-15T08:10:50.922Z,79.18
2023-03-15T08:13:36.479Z,79.37
2023-03-15T08:16:22.137Z,78.83
2023-03-15T08:19:07.974Z,79.15
2023-03-15T08:21:53.535Z,79.61
2023-03-15T08:24:39.131Z,78.55
2023-03-15T08:27:25.281Z,78.85
2023-03-15T08:30:12.887Z,79.03
2023-03-15T08:32:58.396Z,78.95
2023-03-15T08:35:43.820Z,78.03
2023-03-15T08:38:29.114Z,79.15
2023-03-15T08:41:14.552Z,78.95
2023-03-15T08:43:59.695Z,78.87
2023-03-15T08:46:45.250Z,77.88
2023-03-15T08:49:31.151Z,77.09
2023-03-15T08:52:18.091Z,77.20
2023-03-15T08:55:04.370Z,77.47
2023-03-15T08:57:50.019Z,77.60
2023-03-15T09:00:35.323Z,78.19
2023-03-15T09:03:21.070Z,76.91
2023-03-15T09:06:06.436Z,78.85
2023-03-15T09:08:51.672Z,78.80
2023-03-15T09:11:36.783Z,79.06
2023-03-15T09:14:22.313Z,78.44
2023-03-15T09:17:07.979Z,77.16
2023-03-15T09:19:53.441Z,76.98
2023-03-15T09:22:39.848Z,75.69
2023-03-15T09:25:26.371Z,76.18
2023-03-15T09:28:11.700Z,75.66
2023-03-15T09:30:59.526Z,75.45
2023-03-15T09:33:45.257Z,76.93
2023-03-15T09:36:30.741Z,75.90
2023-03-15T09:39:15.880Z,74.98
2023-03-15T09:42:05.383Z,75.35
2023-03-15T09:45:23.134Z,77.89
2023-03-15T09:48:24.750Z,78.02
2023-03-15T09:51:56.235Z,77.56
2023-03-15T09:54:49.646Z,78.57
2023-03-15T09:57:45.499Z,77.37
2023-03-15T10:00:37.649Z,76.46
2023-03-15T10:03:51.636Z,76.33
2023-03-15T10:06:38.929Z,77.25
2023-03-15T10:09:27.966Z,77.63
2023-03-15T10:12:29.355Z,80.09
2023-03-15T10:15:49.281Z,80.58
2023-03-15T10:18:54.791Z,79.34
2023-03-15T10:21:46.163Z,78.13
2023-03-15T10:24:40.803Z,78.40
2023-03-15T10:27:42.226Z,75.11
2023-03-15T10:30:30.373Z,76.01
2023-03-15T10:33:30.530Z,74.08
2023-03-15T10:36:21.683Z,71.17
2023-03-15T10:39:09.993Z,69.31
2023-03-15T10:41:55.640Z,69.62
2023-03-15T10:44:41.010Z,68.26
2023-03-15T10:47:27.188Z,68.22
2023-03-15T10:50:30.623Z,67.98
2023-03-15T10:53:19.597Z,67.96
2023-03-15T10:56:07.722Z,67.96
2023-03-15T10:59:11.537Z,68.47
2023-03-15T11:02:12.843Z,68.73
2023-03-15T11:05:16.445Z,68.52
2023-03-15T11:08:01.788Z,67.06
2023-03-15T11:10:55.753Z,66.53
2023-03-15T11:13:42.299Z,67.20
2023-03-15T11:16:35.396Z,67.50
2023-03-15T11:19:25.657Z,68.76
2023-03-15T11:22:13.698Z,67.63
2023-03-15T11:24:59.128Z,68.13
2023-03-15T11:27:46.971Z,67.47
2023-03-15T11:30:32.298Z,67.82
2023-03-15T11:33:47.351Z,66.87
2023-03-15T11:36:37.153Z,66.58
2023-03-15T11:39:53.750Z,65.57
2023-03-15T11:43:30.677Z,67.09
2023-03-15T11:46:31.825Z,66.89
2023-03-15T11:49:55.768Z,62.46
2023-03-15T11:52:42.093Z,62.72
2023-03-15T11:55:29.572Z,60.76
2023-03-15T11:58:36.326Z,57.89
2023-03-15T12:01:26.332Z,56.07
2023-03-15T12:04:30.437Z,56.66
2023-03-15T12:07:18.613Z,57.48
2023-03-15T12:10:04.025Z,55.25
2023-03-15T12:12:59.178Z,55.81
2023-03-15T12:15:46.765Z,56.40
2023-03-15T12:18:44.773Z,56.72
2023-03-15T12:21:38.648Z,57.46
2023-03-15T12:24:26.587Z,59.40
2023-03-15T12:27:18.511Z,59.96
2023-03-15T12:30:04.948Z,54.91
2023-03-15T12:32:54.965Z,56.88
2023-03-15T12:35:41.629Z,58.11
2023-03-15T12:38:36.381Z,52.57
2023-03-15T12:41:50.291Z,55.06
2023-03-15T12:44:43.065Z,50.85
2023-03-15T12:47:47.136Z,52.66
2023-03-15T12:50:44.493Z,51.80
2023-03-15T12:53:33.128Z,52.01
2023-03-15T12:56:18.649Z,54.05
2023-03-15T12:59:28.257Z,54.71
2023-03-15T13:02:35.874Z,53.38
2023-03-15T13:06:12.836Z,53.65
2023-03-15T13:09:00.711Z,51.74
2023-03-15T13:12:14.077Z,51.29
2023-03-15T13:15:12.333Z,48.03
2023-03-15T13:18:03.485Z,50.36
2023-03-15T13:20:52.955Z,49.17
2023-03-15T13:23:40.236Z,51.21
2023-03-15T13:26:45.687Z,49.65
2023-03-15T13:29:33.048Z,48.09
2023-03-15T13:32:22.059Z,48.36
2023-03-15T13:35:13.411Z,48.22
2023-03-15T13:38:34.275Z,48.73
2023-03-15T13:41:30.922Z,47.82
2023-03-15T13:44:22.473Z,45.74
2023-03-15T13:47:07.946Z,46.87
2023-03-15T13:49:53.707Z,45.60
2023-03-15T13:52:41.151Z,43.94
2023-03-15T13:55:32.708Z,43.29
2023-03-15T13:58:19.802Z,43.93
2023-03-15T14:01:08.211Z,47.94
2023-03-15T14:04:00.482Z,46.42
2023-03-15T14:06:46.717Z,46.07
2023-03-15T14:09:32.052Z,39.59
2023-03-15T14:12:20.962Z,42.67
2023-03-15T14:15:17.833Z,42.15
2023-03-15T14:18:21.668Z,44.77
2023-03-15T14:21:17.582Z,42.83
2023-03-15T14:24:06.599Z,44.56
2023-03-15T14:26:54.874Z,45.83
2023-03-15T14:29:47.620Z,45.54
2023-03-15T14:32:35.997Z,44.20
2023-03-15T14:35:24.063Z,42.00
2023-03-15T14:38:18.378Z,40.87
2023-03-15T14:41:22.125Z,43.37
2023-03-15T14:44:07.536Z,42.42
2023-03-15T14:46:55.027Z,40.66
2023-03-15T14:49:40.344Z,39.76
2023-03-15T14:52:26.983Z,39.59
2023-03-15T14:55:18.334Z,40.95
2023-03-15T14:58:12.560Z,39.14
2023-03-15T15:00:58.949Z,38.25
2023-03-15T15:04:00.434Z,38.52
2023-03-15T15:06:54.669Z,39.90
2023-03-15T15:09:46.558Z,43.40
2023-03-15T15:12:32.288Z,44.11
2023-03-15T15:15:21.660Z,43.06
2023-03-15T15:18:10.122Z,42.43
2023-03-15T15:21:01.434Z,41.45
2023-03-15T15:23:58.033Z,42.43
2023-03-15T15:26:44.823Z,42.08
2023-03-15T15:29:30.248Z,43.07
2023-03-15T15:32:15.487Z,43.06
2023-03-15T15:35:00.629Z,43.93
2023-03-15T15:37:48.727Z,43.07
2023-03-15T15:40:34.054Z,42.79
2023-03-15T15:43:19.641Z,43.38
2023-03-15T15:46:05.259Z,41.85
2023-03-15T15:48:51.873Z,42.69
2023-03-15T15:51:43.105Z,42.02
2023-03-15T15:54:28.781Z,43.68
2023-03-15T15:57:14.867Z,41.38
2023-03-15T16:00:04.871Z,40.76
2023-03-15T16:02:58.530Z,40.74
2023-03-15T16:05:44.016Z,41.45
2023-03-15T16:08:32.568Z,43.93
2023-03-15T16:11:19.048Z,40.51
2023-03-15T16:14:05.621Z,39.28
2023-03-15T16:16:51.052Z,41.52
2023-03-15T16:19:36.604Z,42.55
2023-03-15T16:22:25.619Z,43.39
2023-03-15T16:25:23.052Z,44.43
2023-03-15T16:28:10.178Z,44.23
2023-03-15T16:30:55.598Z,45.02
2023-03-15T16:33:40.784Z,45.60
2023-03-15T16:36:26.326Z,52.10
2023-03-15T16:39:13.203Z,53.79
2023-03-15T16:41:58.347Z,55.06
2023-03-15T16:44:44.016Z,56.31
2023-03-15T16:47:29.326Z,56.63
2023-03-15T16:50:15.668Z,57.46
2023-03-15T16:53:05.281Z,57.77
2023-03-15T16:55:51.841Z,58.98
2023-03-15T16:58:37.558Z,59.85
2023-03-15T17:01:22.721Z,59.21
2023-03-15T17:04:08.228Z,58.89
2023-03-15T17:06:54.453Z,59.95
2023-03-15T17:09:42.648Z,59.85
2023-03-15T17:12:29.261Z,59.56
2023-03-15T17:15:14.900Z,59.36
2023-03-15T17:18:00.281Z,60.15
2023-03-15T17:20:48.732Z,59.24
2023-03-15T17:23:36.471Z,57.45
2023-03-15T17:26:23.422Z,58.52
2023-03-15T17:29:09.116Z,57.58
2023-03-15T17:31:54.858Z,57.84
2023-03-15T17:34:40.200Z,58.15
2023-03-15T17:37:29.452Z,58.76
2023-03-15T17:40:22.601Z,58.74
2023-03-15T17:43:12.443Z,58.88
2023-03-15T17:45:57.940Z,58.20
2023-03-15T17:48:43.409Z,58.17
2023-03-15T17:51:34.232Z,59.26
2023-03-15T17:54:21.112Z,57.57
2023-03-15T17:57:06.386Z,56.83
2023-03-15T17:59:51.930Z,56.53
2023-03-15T18:02:40.753Z,58.30
2023-03-15T18:05:29.603Z,58.37
2023-03-15T18:08:17.911Z,58.39
2023-03-15T18:11:03.580Z,58.28
2023-03-15T18:13:49.529Z,58.41
2023-03-15T18:16:34.682Z,59.17
2023-03-15T18:19:20.183Z,59.67
2023-03-15T18:22:05.425Z,61.16
2023-03-15T18:24:50.979Z,61.74
2023-03-15T18:27:36.245Z,60.60
2023-03-15T18:30:24.064Z,60.38
2023-03-15T18:33:10.449Z,62.14
2023-03-15T18:35:55.990Z,61.29
2023-03-15T18:38:41.714Z,62.22
2023-03-15T18:41:27.206Z,62.30
2023-03-15T18:44:12.856Z,62.75
2023-03-15T18:46:58.844Z,61.53
2023-03-15T18:49:44.314Z,62.08
2023-03-15T18:52:29.887Z,62.72
2023-03-15T18:55:17.486Z,61.92
2023-03-15T18:58:03.873Z,61.38
2023-03-15T19:00:49.514Z,61.54
2023-03-15T19:03:35.315Z,60.77
2023-03-15T19:06:21.864Z,61.32
2023-03-15T19:09:07.412Z,63.12
2023-03-15T19:11:52.917Z,63.77
2023-03-15T19:14:38.405Z,63.93
2023-03-15T19:17:24.024Z,64.56
2023-03-15T19:20:15.827Z,62.90
2023-03-15T19:23:02.477Z,64.91
2023-03-15T19:25:48.294Z,67.88
2023-03-15T19:28:33.873Z,65.68
2023-03-15T19:31:19.176Z,65.66
2023-03-15T19:34:04.711Z,64.26
2023-03-15T19:36:50.077Z,64.58
2023-03-15T19:39:35.701Z,64.65
2023-03-15T19:42:22.706Z,64.36
2023-03-15T19:45:09.271Z,64.25
2023-03-15T19:47:55.108Z,65.77
2023-03-15T19:50:40.542Z,64.98
2023-03-15T19:53:26.221Z,66.14
2023-03-15T19:56:11.892Z,65.16
2023-03-15T19:58:57.066Z,64.45
2023-03-15T20:01:42.954Z,64.10
2023-03-15T20:04:28.226Z,64.31
2023-03-15T20:07:13.551Z,63.31
2023-03-15T20:09:59.042Z,63.92
2023-03-15T20:12:44.685Z,62.75
2023-03-15T20:15:30.184Z,64.38
2023-03-15T20:18:15.596Z,64.25
2023-03-15T20:21:01.432Z,64.54
2023-03-15T20:23:46.974Z,63.72
2023-03-15T20:26:32.358Z,64.22
2023-03-15T20:29:18.348Z,64.76
2023-03-15T20:32:04.545Z,64.78
2023-03-15T20:34:49.674Z,64.78
2023-03-15T20:37:37.166Z,64.51
2023-03-15T20:40:22.701Z,64.25
2023-03-15T20:43:09.448Z,65.56
2023-03-15T20:45:56.934Z,64.34
2023-03-15T20:48:43.194Z,66.73
2023-03-15T20:51:28.789Z,65.43
2023-03-15T20:54:14.293Z,66.10
2023-03-15T20:56:59.583Z,66.03
2023-03-15T20:59:44.910Z,66.05
2023-03-15T21:02:30.101Z,66.22
2023-03-15T21:05:16.985Z,64.63
2023-03-15T21:08:02.326Z,64.53
2023-03-15T21:10:47.826Z,66.61
2023-03-15T21:13:34.869Z,66.08
2023-03-15T21:16:20.154Z,65.55
2023-03-15T21:19:05.249Z,65.35
2023-03-15T21:21:50.841Z,65.70
2023-03-15T21:24:40.651Z,65.95
2023-03-15T21:27:28.968Z,65.86
2023-03-15T21:30:14.188Z,65.94
2023-03-15T21:32:59.820Z,65.93
2023-03-15T21:35:45.108Z,65.90
2023-03-15T21:38:32.717Z,65.99
2023-03-15T21:41:18.008Z,66.03
2023-03-15T21:44:03.236Z,66.48
2023-03-15T21:46:48.525Z,66.55
2023-03-15T21:49:34.207Z,66.22
2023-03-15T21:52:20.763Z,66.73
2023-03-15T21:55:06.919Z,66.94
2023-03-15T21:57:52.327Z,67.09
2023-03-15T22:00:38.576Z,66.86
2023-03-15T22:03:24.071Z,66.83
2023-03-15T22:06:09.900Z,66.78
2023-03-15T22:08:55.444Z,66.86
2023-03-15T22:11:40.631Z,66.73
2023-03-15T22:14:26.056Z,67.53
2023-03-15T22:17:11.400Z,68.28
2023-03-15T22:19:56.408Z,68.38
2023-03-15T22:22:41.555Z,67.18
2023-03-15T22:25:26.758Z,67.12
2023-03-15T22:28:11.873Z,67.63
2023-03-15T22:30:57.178Z,68.98
2023-03-15T22:33:42.346Z,69.15
2023-03-15T22:36:27.931Z,69.25
2023-03-15T22:39:13.220Z,69.21
2023-03-15T22:41:58.597Z,69.46
2023-03-15T22:44:44.199Z,69.99
2023-03-15T22:47:29.430Z,69.26
2023-03-15T22:50:15.761Z,69.42
2023-03-15T22:53:00.925Z,69.62
2023-03-15T22:55:46.405Z,69.14
2023-03-15T22:58:32.534Z,69.13
2023-03-15T23:01:18.159Z,68.83
2023-03-15T23:04:03.388Z,69.61
2023-03-15T23:06:48.905Z,69.31
2023-03-15T23:09:34.019Z,69.33
2023-03-15T23:12:24.286Z,69.71
2023-03-15T23:15:12.746Z,69.31
2023-03-15T23:17:57.930Z,68.96
2023-03-15T23:20:43.507Z,68.55
2023-03-15T23:23:29.364Z,67.79
2023-03-15T23:26:15.137Z,68.42
2023-03-15T23:29:00.343Z,68.56
2023-03-15T23:31:45.855Z,69.48
2023-03-15T23:34:31.055Z,69.31
2023-03-15T23:37:16.554Z,68.86
2023-03-15T23:40:02.028Z,68.72
2023-03-15T23:42:48.363Z,68.70
2023-03-15T23:45:33.637Z,68.54
2023-03-15T23:48:18.640Z,68.00
2023-03-15T23:51:05.204Z,69.13
2023-03-15T23:53:50.411Z,69.38
2023-03-15T23:56:35.839Z,69.60
2023-03-15T23:59:20.934Z,69.15
